Time;durP1;ratioP1;P1;durP2;ratioP2;P2;SDS_P1;SDS_P2;PMS_P1;PMS_P2;Temp;Humidity;BMP_temperature;BMP_pressure;BME280_temperature;BME280_humidity;BME280_pressure;Samples;Min_cycle;Max_cycle;Signal;HPM_P1;HPM_P2
2022/06/13 00:01:34;;;;;;;11.57;4.53;;;;;;;12.43;79.42;101915.81;5019124;28;20461;-82
2022/06/13 00:04:00;;;;;;;12.68;3.88;;;;;;;12.38;79.15;101908.25;5002944;28;20465;-83
2022/06/13 00:06:26;;;;;;;11.55;3.80;;;;;;;12.34;80.02;101901.56;5019219;28;20047;-82
2022/06/13 00:08:52;;;;;;;10.90;4.13;;;;;;;12.33;80.04;101902.59;5019381;28;20037;-82
2022/06/13 00:11:20;;;;;;;10.60;4.17;;;;;;;12.31;80.08;101901.09;5002816;28;20041;-82
2022/06/13 00:13:49;;;;;;;11.00;4.30;;;;;;;12.24;80.15;101906.53;5018546;28;20457;-82
2022/06/13 00:16:14;;;;;;;10.10;4.32;;;;;;;12.23;80.36;101894.78;5036754;28;20049;-83
2022/06/13 00:18:47;;;;;;;12.33;4.60;;;;;;;12.21;81.30;101898.72;5002781;28;20099;-83
2022/06/13 00:21:17;;;;;;;10.15;4.30;;;;;;;12.19;81.42;101889.94;5003773;28;20045;-82
2022/06/13 00:23:42;;;;;;;10.05;4.30;;;;;;;12.13;80.72;101886.13;5018939;28;20088;-82
2022/06/13 00:26:08;;;;;;;8.83;3.93;;;;;;;12.08;80.76;101889.47;5002694;28;20465;-82
2022/06/13 00:28:33;;;;;;;10.20;4.57;;;;;;;12.06;81.00;101887.97;5002163;28;20038;-82
2022/06/13 00:30:59;;;;;;;12.10;3.88;;;;;;;12.08;81.57;101891.34;5002353;28;20060;-82
2022/06/13 00:33:25;;;;;;;11.67;4.27;;;;;;;12.07;81.55;101887.78;5018679;28;20080;-82
2022/06/13 00:35:51;;;;;;;13.90;4.78;;;;;;;12.11;82.01;101878.19;5018813;28;20049;-82
2022/06/13 00:38:17;;;;;;;13.97;4.77;;;;;;;12.17;81.27;101883.88;5036760;28;20064;-83
2022/06/13 00:40:42;;;;;;;11.35;4.53;;;;;;;12.18;81.04;101882.81;5018709;28;20098;-82
2022/06/13 00:43:08;;;;;;;16.37;5.00;;;;;;;12.16;80.95;101882.19;5018135;28;20029;-82
2022/06/13 00:45:36;;;;;;;16.60;5.17;;;;;;;12.18;80.99;101883.66;5002427;28;20033;-83
2022/06/13 00:48:02;;;;;;;12.82;4.70;;;;;;;12.19;81.22;101876.34;5018413;28;20033;-83
2022/06/13 00:50:38;;;;;;;10.45;4.55;;;;;;;12.27;81.39;101882.47;5036201;28;20029;-83
2022/06/13 00:53:16;;;;;;;13.32;5.35;;;;;;;12.38;80.96;101875.59;5018494;28;20072;-82
2022/06/13 00:55:56;;;;;;;13.77;4.68;;;;;;;12.45;81.00;101872.91;5035994;28;20037;-82
2022/06/13 00:58:23;;;;;;;13.27;5.10;;;;;;;12.52;80.40;101873.78;5018461;28;20030;-82
2022/06/13 01:00:52;;;;;;;14.25;5.25;;;;;;;12.57;79.99;101881.34;5001888;28;20037;-82
2022/06/13 01:03:18;;;;;;;10.45;5.03;;;;;;;12.58;80.10;101880.31;5035936;28;20030;-82
2022/06/13 01:05:47;;;;;;;15.15;5.32;;;;;;;12.55;80.12;101873.38;5018223;28;20040;-82
2022/06/13 01:08:14;;;;;;;12.57;5.57;;;;;;;12.56;80.42;101871.47;5018047;28;20034;-82
2022/06/13 01:13:49;;;;;;;15.85;5.40;;;;;;;12.57;79.34;101875.88;5035693;28;20496;-82
2022/06/13 01:16:53;;;;;;;14.75;5.30;;;;;;;12.56;79.75;101880.50;5017769;28;20135;-82
2022/06/13 01:19:55;;;;;;;13.57;5.45;;;;;;;12.48;81.19;101882.56;5014740;28;20033;-82
2022/06/13 01:22:41;;;;;;;16.50;5.07;;;;;;;12.40;81.37;101872.66;5018064;28;20060;-82
2022/06/13 01:25:25;;;;;;;15.53;5.50;;;;;;;12.39;81.41;101874.56;5017937;28;20465;-83
2022/06/13 01:28:36;;;;;;;17.63;6.05;;;;;;;12.35;81.03;101872.44;5035349;28;20033;-82
2022/06/13 01:31:08;;;;;;;16.98;5.90;;;;;;;12.34;81.39;101870.75;5012446;28;20363;-82
2022/06/13 01:33:49;;;;;;;10.13;4.93;;;;;;;12.34;81.44;101873.47;5035443;28;20025;-83
2022/06/13 01:36:36;;;;;;;14.90;5.25;;;;;;;12.35;81.00;101864.28;5017926;28;20103;-82
2022/06/13 01:39:13;;;;;;;13.80;4.70;;;;;;;12.39;81.15;101858.22;5017515;28;20029;-82
2022/06/13 01:41:51;;;;;;;13.05;5.50;;;;;;;12.45;81.52;101853.84;5035506;28;20036;-82
2022/06/13 01:44:22;;;;;;;17.45;5.70;;;;;;;12.46;81.31;101855.53;5017491;28;20041;-82
2022/06/13 01:47:07;;;;;;;17.52;5.70;;;;;;;12.51;81.24;101858.47;5017507;28;20048;-82
2022/06/13 01:49:57;;;;;;;11.95;5.47;;;;;;;12.51;80.81;101863.09;5035108;28;20040;-82
2022/06/13 01:52:25;;;;;;;13.70;5.60;;;;;;;12.54;81.57;101855.34;5017369;28;20032;-82
2022/06/13 01:55:29;;;;;;;13.30;5.30;;;;;;;12.59;80.86;101863.75;5016983;28;20033;-82
2022/06/13 01:58:36;;;;;;;12.40;5.45;;;;;;;12.60;80.16;101862.69;5034996;28;20033;-82
2022/06/13 02:01:21;;;;;;;10.73;5.25;;;;;;;12.59;80.37;101855.59;4974112;28;20466;-82
2022/06/13 02:04:09;;;;;;;11.45;5.53;;;;;;;12.57;80.98;101868.56;5016824;28;20036;-82
2022/06/13 02:06:40;;;;;;;13.47;5.40;;;;;;;12.54;80.72;101863.53;5016961;28;20060;-82
2022/06/13 02:09:20;;;;;;;13.00;5.57;;;;;;;12.50;80.15;101858.69;5035501;28;20469;-82
2022/06/13 02:11:53;;;;;;;14.93;5.93;;;;;;;12.53;80.56;101859.09;5034388;28;20033;-82
2022/06/13 02:14:24;;;;;;;13.65;5.57;;;;;;;12.56;80.97;101864.19;5034734;28;20036;-82
2022/06/13 02:16:57;;;;;;;12.27;5.65;;;;;;;12.59;81.01;101874.66;5016778;28;20494;-82
2022/06/13 02:19:34;;;;;;;13.87;6.10;;;;;;;12.65;81.38;101872.97;5034674;28;20030;-82
2022/06/13 02:22:07;;;;;;;15.55;6.15;;;;;;;12.76;80.45;101861.50;5034557;28;20033;-82
2022/06/13 02:24:39;;;;;;;9.73;5.38;;;;;;;12.77;80.57;101871.34;5034334;28;20056;-82
2022/06/13 02:27:08;;;;;;;15.98;6.13;;;;;;;12.81;81.04;101869.91;5034486;28;20069;-82
2022/06/13 02:29:56;;;;;;;16.52;6.40;;;;;;;12.89;80.18;101863.44;5016460;28;20037;-82
2022/06/13 02:32:41;;;;;;;19.10;6.80;;;;;;;12.94;80.67;101868.25;5034260;28;20032;-82
2022/06/13 02:35:12;;;;;;;17.38;6.03;;;;;;;12.96;80.68;101866.16;5016417;28;20026;-82
2022/06/13 02:38:00;;;;;;;17.35;6.15;;;;;;;13.01;80.45;101865.53;5016346;28;20030;-82
2022/06/13 02:40:31;;;;;;;18.75;6.20;;;;;;;13.04;80.70;101862.41;5016343;28;20548;-82
2022/06/13 02:43:03;;;;;;;17.88;6.07;;;;;;;13.06;80.52;101855.69;5015767;28;20044;-82
2022/06/13 02:46:07;;;;;;;15.60;5.83;;;;;;;13.06;80.79;101857.59;5016488;28;20036;-82
2022/06/13 02:48:46;;;;;;;19.88;6.40;;;;;;;13.03;81.13;101852.56;5029597;28;20060;-82
2022/06/13 02:51:24;;;;;;;20.63;7.03;;;;;;;13.01;81.34;101844.59;5033932;28;20488;-82
2022/06/13 02:54:24;;;;;;;17.25;6.25;;;;;;;13.01;81.12;101860.06;5016163;28;20036;-82
2022/06/13 03:00:04;;;;;;;16.63;6.27;;;;;;;12.95;81.65;101862.59;5034146;28;20091;-82
2022/06/13 03:02:48;;;;;;;19.33;6.07;;;;;;;12.91;82.24;101855.03;5033773;28;20029;-82
2022/06/13 03:05:30;;;;;;;13.63;5.97;;;;;;;12.86;82.40;101858.38;5015446;28;20037;-82
2022/06/13 03:08:14;;;;;;;15.05;6.32;;;;;;;12.79;82.63;101857.53;5016039;28;20048;-82
2022/06/13 03:10:48;;;;;;;17.75;6.80;;;;;;;12.78;83.65;101855.84;5015859;28;20504;-82
2022/06/13 03:13:30;;;;;;;18.73;6.37;;;;;;;12.76;84.02;101855.22;5032987;28;20037;-83
2022/06/13 03:16:03;;;;;;;19.00;6.28;;;;;;;12.75;84.00;101854.38;5015552;28;20053;-82
2022/06/13 03:18:34;;;;;;;18.10;6.43;;;;;;;12.72;84.26;101853.94;5016163;28;20195;-82
2022/06/13 03:21:18;;;;;;;16.70;6.68;;;;;;;12.74;84.89;101865.47;5015751;28;20071;-82
2022/06/13 03:24:10;;;;;;;15.32;6.47;;;;;;;12.77;84.50;101867.78;5015711;28;20026;-82
2022/06/13 03:26:42;;;;;;;13.87;6.67;;;;;;;12.76;84.81;101866.94;5003290;28;20042;-82
2022/06/13 03:29:25;;;;;;;16.67;6.72;;;;;;;12.76;84.74;101866.94;5015974;28;20409;-82
2022/06/13 03:31:55;;;;;;;20.48;6.35;;;;;;;12.77;85.91;101859.59;5015837;28;20496;-82
2022/06/13 03:34:28;;;;;;;19.83;7.53;;;;;;;12.73;85.25;101859.19;5015492;28;20030;-83
2022/06/13 03:37:02;;;;;;;22.02;6.60;;;;;;;12.68;85.10;101860.84;5015950;28;20131;-82
2022/06/13 03:39:34;;;;;;;16.77;7.20;;;;;;;12.60;85.96;101859.97;5015892;28;20474;-82
2022/06/13 03:42:24;;;;;;;18.15;7.05;;;;;;;12.58;86.76;101877.59;5015489;28;20057;-82
2022/06/13 03:45:07;;;;;;;16.75;7.13;;;;;;;12.57;86.57;101870.44;5015578;28;20033;-82
2022/06/13 03:47:57;;;;;;;17.40;7.13;;;;;;;12.51;86.82;101874.00;5016023;28;20040;-82
2022/06/13 03:50:28;;;;;;;22.52;8.25;;;;;;;12.46;86.99;101875.44;5015632;28;20033;-82
2022/06/13 03:53:02;;;;;;;17.77;6.87;;;;;;;12.41;86.92;101877.06;5033389;28;20072;-82
2022/06/13 03:55:43;;;;;;;18.08;6.47;;;;;;;12.34;87.90;101890.66;5033170;28;20029;-82
2022/06/13 03:58:33;;;;;;;22.42;7.90;;;;;;;12.27;87.71;101887.91;5015701;28;20029;-82
2022/06/13 04:01:05;;;;;;;17.85;7.10;;;;;;;12.23;88.58;101888.50;5015381;28;20392;-82
2022/06/13 04:03:31;;;;;;;21.67;7.63;;;;;;;12.18;88.85;101889.13;5033043;28;20038;-82
2022/06/13 04:06:06;;;;;;;20.33;7.23;;;;;;;12.15;89.26;101889.53;5015500;28;20033;-82
2022/06/13 04:08:36;;;;;;;21.55;8.05;;;;;;;12.13;90.00;101885.31;5015528;28;20033;-82
2022/06/13 04:11:19;;;;;;;16.55;7.43;;;;;;;12.12;89.74;101892.63;5033202;28;20025;-82
2022/06/13 04:13:58;;;;;;;19.03;7.57;;;;;;;12.09;90.09;101895.72;5014688;28;20523;-83
2022/06/13 04:16:32;;;;;;;19.75;7.65;;;;;;;12.09;90.11;101893.88;5015191;28;20049;-82
2022/06/13 04:19:40;;;;;;;18.67;7.93;;;;;;;12.10;90.38;101889.25;5015513;28;20037;-82
2022/06/13 04:22:33;;;;;;;19.55;7.53;;;;;;;12.10;90.32;101891.97;5015168;28;20048;-82
2022/06/13 04:25:07;;;;;;;16.40;7.50;;;;;;;12.08;90.61;101899.50;5015112;28;20497;-82
2022/06/13 04:27:53;;;;;;;21.17;7.63;;;;;;;12.08;90.96;101902.25;5019058;28;20053;-82
2022/06/13 04:30:22;;;;;;;20.65;7.78;;;;;;;12.08;91.38;101904.94;5036947;28;20057;-82
2022/06/13 04:33:02;;;;;;;21.73;7.63;;;;;;;12.12;91.37;101911.69;5018646;28;20036;-82
2022/06/13 04:35:30;;;;;;;18.17;7.50;;;;;;;12.19;91.67;101907.09;5036226;28;20052;-82
2022/06/13 04:37:56;;;;;;;20.63;8.38;;;;;;;12.29;91.18;101913.00;5018784;28;20029;-82
2022/06/13 04:40:25;;;;;;;29.67;8.50;;;;;;;12.37;91.45;101912.03;5036386;28;20108;-82
2022/06/13 04:42:54;;;;;;;16.67;8.57;;;;;;;12.42;91.02;101914.97;5017922;28;20385;-82
2022/06/13 04:45:26;;;;;;;24.20;8.40;;;;;;;12.54;91.16;101917.97;5018100;28;20021;-83
2022/06/13 04:47:53;;;;;;;19.75;7.97;;;;;;;12.61;90.86;101915.28;5018461;28;20022;-82
2022/06/13 04:50:35;;;;;;;24.90;9.02;;;;;;;12.67;90.32;101909.03;5018518;28;20076;-82
2022/06/13 04:53:03;;;;;;;21.57;9.17;;;;;;;12.79;90.45;101912.81;5036207;28;20094;-82
2022/06/13 04:55:38;;;;;;;20.58;8.57;;;;;;;12.91;90.06;101920.41;5036010;28;20026;-82
2022/06/13 04:58:03;;;;;;;21.60;8.05;;;;;;;12.97;89.85;101912.25;5018306;28;20073;-82
2022/06/13 05:00:32;;;;;;;19.07;8.50;;;;;;;13.03;89.79;101920.66;5018312;28;20064;-83
2022/06/13 05:02:57;;;;;;;17.73;8.13;;;;;;;13.14;89.64;101920.91;5018347;28;20025;-82
2022/06/13 05:05:39;;;;;;;20.37;8.97;;;;;;;13.30;88.54;101924.25;5018428;28;20033;-82
2022/06/13 05:08:22;;;;;;;19.70;8.15;;;;;;;13.41;88.68;101931.03;5017622;28;20061;-82
2022/06/13 05:10:52;;;;;;;24.77;9.10;;;;;;;13.51;89.27;101929.56;5036378;28;20025;-83
2022/06/13 05:13:18;;;;;;;22.13;8.93;;;;;;;13.61;88.63;101931.91;5017160;28;20116;-82
2022/06/13 05:15:49;;;;;;;20.65;8.73;;;;;;;13.72;88.56;101927.69;5001414;28;20052;-82
2022/06/13 05:18:27;;;;;;;24.20;9.07;;;;;;;13.88;88.03;101931.88;5017910;28;20037;-82
2022/06/13 05:21:14;;;;;;;18.90;8.25;;;;;;;13.99;87.16;101936.69;5018056;28;20037;-82
2022/06/13 05:23:43;;;;;;;24.75;8.45;;;;;;;14.07;87.53;101935.66;5017756;28;20523;-82
2022/06/13 05:26:08;;;;;;;22.17;9.25;;;;;;;14.16;87.70;101942.56;5017829;28;20120;-83
2022/06/13 05:28:35;;;;;;;20.27;8.77;;;;;;;14.21;87.24;101945.47;5017730;28;20124;-84
2022/06/13 05:31:18;;;;;;;18.25;8.45;;;;;;;14.34;86.97;101935.59;5035258;28;20040;-85
2022/06/13 05:33:45;;;;;;;25.75;8.68;;;;;;;14.44;85.37;101944.16;5017044;28;20025;-85
2022/06/13 05:36:16;;;;;;;21.15;7.03;;;;;;;14.56;84.18;101956.09;5034910;28;20512;-85
2022/06/13 05:39:00;;;;;;;24.70;8.35;;;;;;;14.69;83.79;101951.66;5016450;28;20041;-85
2022/06/13 05:41:26;;;;;;;17.97;7.67;;;;;;;14.76;83.98;101957.13;5017254;28;20124;-85
2022/06/13 05:43:52;;;;;;;23.17;8.07;;;;;;;14.85;82.99;101955.81;5016682;28;20140;-83
2022/06/13 05:46:27;;;;;;;25.48;8.73;;;;;;;14.95;82.54;101963.56;5017111;28;20120;-84
2022/06/13 05:48:52;;;;;;;20.58;8.23;;;;;;;15.15;82.25;101963.47;5017457;28;20026;-84
2022/06/13 05:51:18;;;;;;;26.07;8.00;;;;;;;15.29;81.48;101959.56;5001121;28;20036;-84
2022/06/13 05:53:43;;;;;;;25.33;8.17;;;;;;;15.43;81.16;101961.16;5000531;28;20512;-83
2022/06/13 05:56:11;;;;;;;22.30;8.15;;;;;;;15.58;80.74;101957.28;5000770;28;20041;-83
2022/06/13 05:58:37;;;;;;;20.25;7.97;;;;;;;15.63;80.19;101965.66;5016947;28;20030;-84
2022/06/13 06:01:03;;;;;;;20.20;7.97;;;;;;;15.73;80.14;101976.09;5016824;28;20116;-84
2022/06/13 06:03:29;;;;;;;21.17;8.20;;;;;;;15.70;79.84;101982.84;5016663;28;20110;-83
2022/06/13 06:05:55;;;;;;;19.85;7.97;;;;;;;15.67;80.09;101979.75;5016919;28;20460;-84
2022/06/13 06:08:25;;;;;;;19.27;8.00;;;;;;;15.83;80.28;101979.22;5000006;28;20188;-84
2022/06/13 06:10:53;;;;;;;24.48;8.27;;;;;;;15.97;79.61;101982.66;5016454;28;20033;-85
2022/06/13 06:13:19;;;;;;;23.17;7.37;;;;;;;16.09;78.17;101978.16;5015922;28;20040;-85
2022/06/13 06:15:46;;;;;;;20.77;7.63;;;;;;;16.16;77.21;101986.28;5016393;28;20432;-85
2022/06/13 06:18:12;;;;;;;25.48;7.90;;;;;;;16.24;76.51;101994.22;5017087;28;20476;-84
2022/06/13 06:20:38;;;;;;;21.75;6.70;;;;;;;16.29;75.37;101997.09;5016460;28;20093;-84
2022/06/13 06:23:04;;;;;;;14.43;5.97;;;;;;;16.39;75.38;102002.09;5000052;28;20080;-86
2022/06/13 06:25:30;;;;;;;23.88;6.50;;;;;;;16.36;73.86;102002.53;5016279;28;20120;-86
2022/06/13 06:27:56;;;;;;;19.85;6.25;;;;;;;16.40;73.51;102000.16;5014812;28;20472;-84
2022/06/13 06:30:27;;;;;;;17.13;6.23;;;;;;;16.49;71.88;101996.09;5004814;28;20123;-85
2022/06/13 06:32:55;;;;;;;16.38;6.18;;;;;;;16.62;72.11;101997.81;5012542;28;20465;-85
2022/06/13 06:35:25;;;;;;;12.87;5.20;;;;;;;16.71;71.37;101999.22;5015909;28;20120;-85
2022/06/13 06:37:52;;;;;;;15.60;4.53;;;;;;;16.68;70.96;102005.13;5013100;28;20044;-83
2022/06/13 06:40:23;;;;;;;17.20;4.05;;;;;;;16.53;69.06;102010.97;5010363;28;20043;-84
2022/06/13 06:42:48;;;;;;;9.00;3.63;;;;;;;16.44;68.48;102012.34;5015834;28;20473;-84
2022/06/13 06:45:14;;;;;;;11.33;3.83;;;;;;;16.51;69.26;102026.81;5016200;28;20025;-84
2022/06/13 06:47:40;;;;;;;11.95;3.35;;;;;;;16.53;66.52;102016.47;5013428;28;20040;-85
2022/06/13 06:50:11;;;;;;;9.98;2.83;;;;;;;16.40;67.82;102025.69;5016373;28;20409;-85
2022/06/13 06:52:36;;;;;;;8.30;3.80;;;;;;;16.49;68.05;102020.75;5016685;28;20036;-85
2022/06/13 07:00:30;;;;;;;7.22;2.63;;;;;;;16.75;64.60;102030.56;5018935;28;20099;-84
2022/06/13 07:02:59;;;;;;;12.40;3.25;;;;;;;16.70;65.37;102032.31;5015942;28;20397;-85
2022/06/13 07:05:24;;;;;;;13.30;2.70;;;;;;;16.65;65.38;102031.09;5000567;28;20060;-85
2022/06/13 07:07:49;;;;;;;10.13;2.10;;;;;;;16.66;63.80;102030.03;4999747;28;20033;-85
2022/06/13 07:10:15;;;;;;;9.80;2.13;;;;;;;16.57;62.77;102023.16;5015977;28;20461;-85
2022/06/13 07:12:43;;;;;;;9.30;2.40;;;;;;;16.43;62.51;102025.22;5015240;28;20124;-85
2022/06/13 07:15:13;;;;;;;10.37;2.33;;;;;;;16.42;62.20;102022.72;5015754;28;20311;-85
2022/06/13 07:17:38;;;;;;;8.90;2.38;;;;;;;16.37;63.25;102022.53;5015562;28;20273;-85
2022/06/13 07:20:04;;;;;;;6.50;1.63;;;;;;;16.36;62.39;102031.81;5015791;28;20528;-85
2022/06/13 07:22:30;;;;;;;8.18;2.10;;;;;;;16.23;61.88;102030.88;5015780;28;20044;-84
2022/06/13 07:24:56;;;;;;;9.00;2.40;;;;;;;16.31;62.30;102032.47;5015682;28;20401;-84
2022/06/13 07:27:22;;;;;;;7.53;2.10;;;;;;;16.42;62.29;102026.28;4999153;28;20204;-84
2022/06/13 07:29:47;;;;;;;6.50;2.08;;;;;;;16.81;60.57;102032.38;5015746;28;20072;-85
2022/06/13 07:32:23;;;;;;;9.90;2.53;;;;;;;17.16;61.03;102036.44;5033017;28;20037;-84
2022/06/13 07:34:52;;;;;;;9.20;2.58;;;;;;;17.38;58.66;102033.19;5015592;28;20021;-84
2022/06/13 07:40:28;;;;;;;12.40;2.72;;;;;;;17.81;58.66;102029.41;4952968;28;20035;-85
2022/06/13 07:42:56;;;;;;;8.18;1.98;;;;;;;17.95;57.67;102030.03;4936510;29;20035;-85
2022/06/13 07:45:25;;;;;;;7.75;2.00;;;;;;;18.04;56.71;102034.97;4985504;28;20095;-85
2022/06/13 07:47:52;;;;;;;7.65;1.88;;;;;;;18.11;57.43;102042.25;5032963;28;20033;-84
2022/06/13 07:50:20;;;;;;;8.37;2.67;;;;;;;17.93;56.11;102032.19;5015163;28;20040;-85
2022/06/13 07:52:47;;;;;;;11.00;2.58;;;;;;;17.86;56.65;102041.34;5033073;28;20061;-85
2022/06/13 07:55:15;;;;;;;11.38;2.60;;;;;;;17.78;56.78;102044.44;4998741;28;20038;-85
2022/06/13 07:57:45;;;;;;;10.77;2.25;;;;;;;17.61;57.43;102046.16;5015763;28;20044;-84
2022/06/13 08:00:20;;;;;;;8.77;2.58;;;;;;;17.43;58.23;102058.03;5015500;28;20026;-85
2022/06/13 08:02:45;;;;;;;7.63;2.50;;;;;;;17.33;58.27;102055.81;5019305;28;20034;-85
2022/06/13 08:05:16;;;;;;;8.13;2.70;;;;;;;17.35;58.99;102054.53;5002711;28;20504;-85
2022/06/13 08:07:44;;;;;;;11.45;2.75;;;;;;;17.42;59.03;102059.94;5019063;28;20033;-85
2022/06/13 08:10:15;;;;;;;9.60;2.87;;;;;;;17.58;59.08;102063.09;5036928;28;20037;-85
2022/06/13 08:12:46;;;;;;;7.82;2.65;;;;;;;17.67;58.66;102067.19;5002386;28;20034;-85
2022/06/13 08:15:13;;;;;;;8.57;2.40;;;;;;;17.69;55.98;102074.13;5018869;28;20040;-84
2022/06/13 08:17:39;;;;;;;12.68;2.63;;;;;;;17.58;55.95;102065.84;5018666;28;20089;-85
2022/06/13 08:20:07;;;;;;;11.85;2.75;;;;;;;17.70;56.01;102077.69;5036451;28;20037;-85
2022/06/13 08:22:36;;;;;;;10.07;2.80;;;;;;;18.05;56.28;102064.13;5002782;28;20048;-84
2022/06/13 08:25:02;;;;;;;9.00;2.90;;;;;;;18.40;56.87;102076.19;5018825;28;20124;-85
2022/06/13 08:27:27;;;;;;;10.48;2.70;;;;;;;18.39;54.13;102077.28;5018756;28;20513;-85
2022/06/13 08:29:53;;;;;;;5.83;2.33;;;;;;;18.37;55.13;102080.25;5002741;28;20132;-84
2022/06/13 08:32:22;;;;;;;10.55;2.58;;;;;;;18.40;53.35;102085.28;5038508;28;20029;-84
2022/06/13 08:34:47;;;;;;;6.33;1.90;;;;;;;18.32;53.03;102082.91;5019289;28;20041;-84
2022/06/13 08:37:13;;;;;;;5.03;1.98;;;;;;;18.18;54.04;102086.94;5020771;28;20535;-85
2022/06/13 08:39:41;;;;;;;5.73;2.03;;;;;;;18.13;54.24;102084.03;5002507;28;20061;-85
2022/06/13 08:42:17;;;;;;;5.40;2.30;;;;;;;18.15;54.90;102087.41;5018565;28;20577;-85
2022/06/13 08:45:07;;;;;;;6.97;2.00;;;;;;;18.21;55.42;102084.53;5018767;28;20374;-84
2022/06/13 08:47:42;;;;;;;10.25;2.22;;;;;;;18.19;55.40;102086.69;5018493;28;20055;-86
2022/06/13 08:50:15;;;;;;;6.65;2.45;;;;;;;18.29;53.72;102097.09;5010667;28;20560;-86
2022/06/13 08:52:54;;;;;;;6.27;1.90;;;;;;;18.59;52.64;102086.00;5024367;28;20105;-86
2022/06/13 08:55:37;;;;;;;5.60;2.03;;;;;;;19.03;52.32;102104.88;5012239;28;20464;-84
2022/06/13 08:58:25;;;;;;;7.07;2.33;;;;;;;19.26;50.94;102094.91;5018490;28;20555;-84
2022/06/13 09:01:15;;;;;;;6.63;2.50;;;;;;;19.38;51.45;102095.69;5018214;28;20068;-84
2022/06/13 09:03:50;;;;;;;6.55;2.20;;;;;;;19.18;49.35;102115.38;5018091;28;20029;-84
2022/06/13 09:06:22;;;;;;;6.40;2.10;;;;;;;18.88;49.63;102102.63;5015046;28;20478;-84
2022/06/13 09:09:02;;;;;;;4.82;1.77;;;;;;;18.92;50.01;102106.56;5004241;28;20489;-84
2022/06/13 09:11:36;;;;;;;5.63;1.83;;;;;;;18.98;49.60;102103.94;5006182;28;20037;-83
2022/06/13 09:14:15;;;;;;;5.57;1.60;;;;;;;19.04;48.22;102116.72;5005341;28;20025;-84
2022/06/13 09:16:48;;;;;;;5.68;1.73;;;;;;;19.01;48.32;102118.03;5017442;28;20060;-83
2022/06/13 09:19:28;;;;;;;7.03;1.70;;;;;;;19.09;47.75;102112.16;5035605;28;20030;-83
2022/06/13 09:22:00;;;;;;;3.80;1.50;;;;;;;19.21;46.96;102119.56;5017668;28;20033;-82
2022/06/13 09:24:53;;;;;;;6.93;1.40;;;;;;;19.25;48.36;102123.47;5035386;28;20175;-84
2022/06/13 09:28:03;;;;;;;4.10;1.40;;;;;;;19.12;47.91;102127.34;5017758;28;20072;-83
2022/06/13 09:30:34;;;;;;;5.35;1.65;;;;;;;19.24;46.95;102117.16;5035558;28;20057;-83
2022/06/13 09:33:08;;;;;;;11.50;2.40;;;;;;;19.52;47.26;102120.19;5035401;28;20029;-84
2022/06/13 09:35:46;;;;;;;5.43;1.55;;;;;;;19.57;46.42;102129.38;5035443;28;20021;-84
2022/06/13 09:38:23;;;;;;;7.32;2.00;;;;;;;19.70;48.13;102136.50;5014316;28;20033;-84
2022/06/13 09:41:01;;;;;;;7.55;2.90;;;;;;;19.97;47.66;102136.78;5035733;28;20389;-84
2022/06/13 09:43:46;;;;;;;8.88;2.72;;;;;;;20.02;47.95;102148.97;5034432;28;20469;-84
2022/06/13 09:46:33;;;;;;;6.73;1.90;;;;;;;20.34;48.01;102143.75;5035044;28;20124;-83
2022/06/13 09:49:28;;;;;;;6.53;2.00;;;;;;;20.77;47.81;102146.94;5017125;28;20035;-84
2022/06/13 09:52:09;;;;;;;3.90;1.63;;;;;;;20.85;46.45;102144.59;5016849;28;20037;-84
2022/06/13 09:54:46;;;;;;;8.40;1.80;;;;;;;20.81;45.87;102151.69;5016863;28;20029;-84
2022/06/13 09:57:33;;;;;;;4.90;2.60;;;;;;;20.70;47.06;102152.63;5034795;28;20112;-83
2022/06/13 10:00:21;;;;;;;6.17;2.73;;;;;;;20.90;47.41;102154.84;5035698;28;20096;-85
2022/06/13 10:03:04;;;;;;;10.68;3.05;;;;;;;21.19;45.53;102150.03;5008007;28;20392;-84
2022/06/13 10:05:44;;;;;;;5.63;2.20;;;;;;;20.87;44.20;102157.28;5004927;28;20042;-84
2022/06/13 10:08:37;;;;;;;8.07;2.38;;;;;;;20.68;43.90;102157.56;4996911;28;20033;-85
2022/06/13 10:11:25;;;;;;;6.93;1.35;;;;;;;20.59;44.34;102161.78;5015199;28;20033;-84
2022/06/13 10:14:20;;;;;;;12.67;1.43;;;;;;;20.43;44.02;102157.94;5016266;28;20060;-85
2022/06/13 10:17:10;;;;;;;4.22;1.20;;;;;;;20.47;44.33;102156.38;4985917;28;20045;-84
2022/06/13 10:20:03;;;;;;;4.60;1.67;;;;;;;20.72;43.36;102157.91;5016789;28;20021;-85
2022/06/13 10:22:56;;;;;;;12.57;1.58;;;;;;;20.71;43.85;102153.47;5016070;28;20035;-84
2022/06/13 10:25:46;;;;;;;6.95;2.00;;;;;;;20.95;43.59;102154.09;5013187;28;20037;-85
2022/06/13 10:28:39;;;;;;;10.07;3.93;;;;;;;21.21;43.62;102155.28;5015622;28;20029;-85
2022/06/13 10:31:15;;;;;;;7.20;3.00;;;;;;;21.22;42.88;102153.38;5014635;28;20092;-85
2022/06/13 10:34:07;;;;;;;6.97;1.90;;;;;;;20.96;42.97;102155.78;5015689;28;20041;-84
2022/06/13 10:36:52;;;;;;;6.10;1.48;;;;;;;20.60;43.83;102152.44;5015915;28;20052;-85
2022/06/13 10:39:22;;;;;;;6.45;1.80;;;;;;;20.49;42.88;102163.31;5015955;28;20112;-85
2022/06/13 10:41:54;;;;;;;6.23;2.00;;;;;;;20.39;42.88;102151.25;5015619;28;20057;-87
2022/06/13 10:44:21;;;;;;;7.25;2.13;;;;;;;20.22;45.80;102156.78;5015388;28;20557;-85
2022/06/13 10:46:51;;;;;;;5.00;1.50;;;;;;;20.43;44.10;102156.03;5015884;28;20040;-85
2022/06/13 10:49:35;;;;;;;4.72;1.65;;;;;;;21.07;44.67;102153.97;4999586;28;20441;-85
2022/06/13 10:52:10;;;;;;;5.80;1.45;;;;;;;21.26;42.68;102158.13;5009512;28;20417;-86
2022/06/13 10:54:49;;;;;;;6.80;1.40;;;;;;;21.42;42.54;102148.13;5028227;28;20038;-86
2022/06/13 10:57:39;;;;;;;4.63;1.60;;;;;;;21.99;41.52;102140.47;5028222;28;20029;-86
2022/06/13 11:00:14;;;;;;;7.97;1.88;;;;;;;22.27;41.28;102152.34;4995676;28;20026;-86
2022/06/13 11:02:43;;;;;;;7.20;3.15;;;;;;;22.00;41.07;102148.50;4995856;28;20478;-87
2022/06/13 11:05:16;;;;;;;4.22;1.70;;;;;;;21.82;40.70;102152.47;5016066;28;20029;-88
2022/06/13 11:08:02;;;;;;;5.17;1.53;;;;;;;21.90;39.52;102164.97;5002508;28;20050;-85
2022/06/13 11:10:50;;;;;;;3.60;1.33;;;;;;;21.60;39.91;102162.69;5014850;28;20042;-85
2022/06/13 11:13:27;;;;;;;8.65;1.50;;;;;;;22.17;40.01;102161.38;5014574;28;20037;-86
2022/06/13 11:24:51;;;;;;;7.15;1.48;;;;;;;24.74;33.55;102162.50;5013485;28;20080;-84
2022/06/13 11:27:41;;;;;;;3.20;1.20;;;;;;;23.91;36.03;102166.34;5012819;28;20050;-83
2022/06/13 11:30:25;;;;;;;5.15;1.33;;;;;;;25.88;33.45;102161.00;4995790;28;20064;-83
2022/06/13 11:33:02;;;;;;;2.78;1.38;;;;;;;27.98;28.71;102171.13;5013257;28;20045;-84
2022/06/13 11:35:44;;;;;;;4.33;1.17;;;;;;;29.75;26.50;102161.97;4996474;28;20069;-83
2022/06/13 11:38:18;;;;;;;8.90;1.38;;;;;;;31.11;23.77;102153.50;5017272;28;20049;-84
2022/06/13 11:41:13;;;;;;;4.28;1.70;;;;;;;32.22;24.07;102152.34;4999888;28;20466;-84
2022/06/13 11:44:01;;;;;;;4.30;1.50;;;;;;;31.00;25.07;102157.75;4991924;28;20030;-84
2022/06/13 11:46:27;;;;;;;3.65;1.75;;;;;;;29.26;25.24;102167.19;5032053;28;20493;-84
2022/06/13 11:48:56;;;;;;;4.50;1.50;;;;;;;27.09;28.07;102154.94;4999620;28;20045;-84
2022/06/13 11:51:26;;;;;;;3.35;1.45;;;;;;;26.46;29.56;102153.91;5017242;28;20034;-84
2022/06/13 11:53:57;;;;;;;5.03;1.63;;;;;;;27.09;29.60;102166.09;4999167;28;20040;-83
2022/06/13 11:56:33;;;;;;;4.45;1.80;;;;;;;27.40;28.64;102146.25;5016886;28;20108;-83
2022/06/13 11:59:04;;;;;;;6.32;1.45;;;;;;;28.89;27.97;102138.31;5000184;28;20133;-84
2022/06/13 12:01:35;;;;;;;4.97;1.65;;;;;;;30.87;24.82;102143.50;5032351;28;20030;-84
2022/06/13 12:04:07;;;;;;;3.97;1.70;;;;;;;31.97;22.73;102159.59;5017276;28;20063;-84
2022/06/13 12:06:55;;;;;;;4.33;1.20;;;;;;;32.82;22.79;102155.31;5016754;28;20474;-84
2022/06/13 12:09:29;;;;;;;3.30;1.30;;;;;;;33.69;19.38;102148.38;5017126;28;20494;-85
2022/06/13 12:11:58;;;;;;;1.88;1.52;;;;;;;34.93;19.08;102155.28;5016959;28;20030;-84
2022/06/13 12:14:40;;;;;;;5.93;1.80;;;;;;;33.35;20.65;102153.94;4999206;28;20053;-84
2022/06/13 12:17:17;;;;;;;6.45;1.95;;;;;;;29.25;24.63;102170.31;5016674;28;20112;-84
2022/06/13 12:19:57;;;;;;;4.53;1.80;;;;;;;27.24;27.61;102145.59;4999194;28;20492;-85